createdAt,value
2022-08-27T00:00:46.719Z,8.40
2022-08-27T00:01:46.773Z,8.40
2022-08-27T00:02:46.702Z,8.40
2022-08-27T00:03:46.752Z,7.20
2022-08-27T00:04:46.675Z,7.40
2022-08-27T00:05:46.652Z,7.40
2022-08-27T00:06:46.652Z,7.10
2022-08-27T00:07:46.663Z,6.70
2022-08-27T00:08:46.641Z,6.50
2022-08-27T00:09:46.611Z,7.00
2022-08-27T00:10:46.635Z,7.00
2022-08-27T00:11:46.594Z,6.90
2022-08-27T00:12:46.593Z,6.70
2022-08-27T00:13:46.572Z,6.50
2022-08-27T00:14:46.565Z,6.60
2022-08-27T00:15:46.547Z,6.30
2022-08-27T00:16:46.613Z,5.90
2022-08-27T00:17:46.537Z,7.10
2022-08-27T00:18:47.880Z,6.90
2022-08-27T00:19:46.517Z,6.70
2022-08-27T00:20:46.497Z,7.20
2022-08-27T00:21:46.477Z,6.80
2022-08-27T00:22:46.498Z,6.70
2022-08-27T00:23:46.461Z,5.80
2022-08-27T00:24:49.120Z,7.10
2022-08-27T00:25:46.439Z,6.70
2022-08-27T00:26:46.437Z,6.60
2022-08-27T00:27:46.428Z,5.90
2022-08-27T00:28:46.409Z,6.50
2022-08-27T00:29:46.397Z,6.50
2022-08-27T00:30:46.381Z,6.50
2022-08-27T00:31:46.420Z,6.20
2022-08-27T00:32:47.361Z,6.30
2022-08-27T00:33:46.351Z,7.30
2022-08-27T00:34:46.342Z,7.60
2022-08-27T00:35:46.331Z,6.80
2022-08-27T00:36:46.341Z,7.00
2022-08-27T00:37:46.324Z,7.90
2022-08-27T00:38:46.304Z,6.80
2022-08-27T00:39:46.283Z,7.50
2022-08-27T00:40:46.282Z,7.30
2022-08-27T00:41:46.273Z,7.30
2022-08-27T00:42:46.264Z,6.80
2022-08-27T00:43:46.242Z,7.30
2022-08-27T00:44:46.234Z,6.90
2022-08-27T00:45:46.287Z,7.00
2022-08-27T00:46:46.255Z,7.10
2022-08-27T00:47:46.195Z,7.50
2022-08-27T00:48:46.185Z,6.70
2022-08-27T00:49:46.182Z,7.30
2022-08-27T00:50:46.167Z,7.20
2022-08-27T00:51:46.157Z,7.40
2022-08-27T00:52:46.149Z,6.70
2022-08-27T00:53:46.129Z,7.00
2022-08-27T00:54:46.127Z,7.00
2022-08-27T00:55:52.837Z,7.10
2022-08-27T00:56:51.552Z,7.80
2022-08-27T00:57:47.080Z,8.00
2022-08-27T00:58:46.089Z,7.80
2022-08-27T00:59:46.114Z,7.50
2022-08-27T01:00:46.107Z,7.60
2022-08-27T01:01:46.104Z,7.60
2022-08-27T01:02:46.041Z,6.40
2022-08-27T01:03:46.021Z,7.00
2022-08-27T01:04:46.020Z,7.30
2022-08-27T01:05:46.000Z,7.80
2022-08-27T01:06:46.001Z,7.40
2022-08-27T01:07:45.983Z,7.80
2022-08-27T01:08:45.972Z,7.80
2022-08-27T01:09:45.974Z,7.80
2022-08-27T01:10:45.953Z,8.10
2022-08-27T01:11:45.954Z,8.20
2022-08-27T01:12:45.931Z,8.30
2022-08-27T01:13:59.983Z,8.50
2022-08-27T01:14:46.969Z,7.40
2022-08-27T01:15:45.897Z,8.60
2022-08-27T01:16:45.947Z,8.20
2022-08-27T01:17:45.866Z,8.00
2022-08-27T01:18:45.885Z,7.80
2022-08-27T01:19:45.886Z,7.60
2022-08-27T01:20:45.875Z,7.80
2022-08-27T01:21:45.826Z,7.20
2022-08-27T01:22:45.825Z,7.30
2022-08-27T01:23:45.827Z,7.40
2022-08-27T01:24:45.815Z,7.40
2022-08-27T01:25:45.844Z,7.50
2022-08-27T01:26:45.787Z,7.70
2022-08-27T01:27:45.758Z,8.10
2022-08-27T01:28:45.779Z,8.40
2022-08-27T01:29:45.760Z,9.00
2022-08-27T01:30:45.759Z,10.00
2022-08-27T01:31:45.811Z,11.30
2022-08-27T01:32:45.719Z,9.90
2022-08-27T01:33:45.701Z,10.20
2022-08-27T01:34:45.691Z,8.60
2022-08-27T01:35:45.671Z,9.00
2022-08-27T01:36:45.672Z,7.70
2022-08-27T01:37:45.650Z,8.60
2022-08-27T01:38:45.640Z,9.00
2022-08-27T01:39:45.652Z,10.80
2022-08-27T01:40:45.621Z,14.50
2022-08-27T01:41:45.641Z,14.90
2022-08-27T01:42:45.594Z,15.80
2022-08-27T01:43:45.590Z,18.40
2022-08-27T01:44:45.572Z,18.40
2022-08-27T01:45:45.575Z,18.60
2022-08-27T01:46:45.630Z,19.40
2022-08-27T01:47:45.546Z,19.60
2022-08-27T01:48:45.523Z,18.30
2022-08-27T01:49:45.515Z,20.00
2022-08-27T01:50:45.515Z,19.90
2022-08-27T01:51:45.508Z,21.80
2022-08-27T01:52:45.486Z,21.40
2022-08-27T01:53:45.475Z,21.20
2022-08-27T01:54:45.472Z,21.00
2022-08-27T01:55:46.345Z,21.30
2022-08-27T01:56:45.437Z,20.80
2022-08-27T01:57:45.473Z,20.60
2022-08-27T01:58:45.418Z,20.80
2022-08-27T01:59:45.420Z,20.60
2022-08-27T02:00:45.421Z,20.90
2022-08-27T02:01:45.449Z,21.20
2022-08-27T02:02:45.378Z,21.70
2022-08-27T02:03:45.368Z,20.70
2022-08-27T02:04:45.359Z,20.50
2022-08-27T02:05:45.381Z,21.60
2022-08-27T02:06:45.338Z,21.00
2022-08-27T02:07:45.340Z,20.80
2022-08-27T02:08:45.339Z,21.10
2022-08-27T02:09:45.309Z,20.40
2022-08-27T02:10:45.361Z,20.70
2022-08-27T02:11:45.272Z,22.30
2022-08-27T02:12:45.261Z,21.00
2022-08-27T02:13:45.256Z,20.80
2022-08-27T02:14:45.264Z,21.20
2022-08-27T02:15:45.253Z,20.20
2022-08-27T02:16:52.028Z,19.70
2022-08-27T02:17:46.203Z,19.60
2022-08-27T02:18:45.205Z,19.70
2022-08-27T02:19:45.183Z,19.80
2022-08-27T02:20:45.214Z,19.50
2022-08-27T02:21:45.183Z,19.90
2022-08-27T02:22:45.164Z,19.20
2022-08-27T02:23:45.146Z,19.40
2022-08-27T02:24:45.124Z,20.00
2022-08-27T02:25:45.133Z,20.70
2022-08-27T02:26:45.148Z,21.20
2022-08-27T02:27:45.094Z,20.10
2022-08-27T02:28:45.099Z,21.50
2022-08-27T02:29:46.679Z,21.40
2022-08-27T02:30:45.082Z,23.00
2022-08-27T02:31:45.099Z,24.10
2022-08-27T02:32:45.046Z,25.20
2022-08-27T02:33:45.046Z,25.10
2022-08-27T02:34:45.027Z,26.00
2022-08-27T02:35:45.048Z,29.90
2022-08-27T02:36:44.998Z,27.90
2022-08-27T02:37:44.991Z,28.80
2022-08-27T02:38:45.023Z,29.30
2022-08-27T02:39:46.130Z,29.60
2022-08-27T02:40:44.969Z,30.80
2022-08-27T02:41:44.949Z,30.00
2022-08-27T02:42:44.935Z,29.20
2022-08-27T02:43:44.912Z,32.00
2022-08-27T02:44:44.911Z,30.60
2022-08-27T02:45:44.901Z,31.70
2022-08-27T02:46:44.929Z,32.90
2022-08-27T02:47:44.901Z,31.40
2022-08-27T02:48:44.874Z,30.40
2022-08-27T02:49:44.846Z,28.60
2022-08-27T02:50:44.853Z,28.10
2022-08-27T02:51:44.825Z,28.80
2022-08-27T02:52:44.826Z,28.40
2022-08-27T02:53:44.802Z,27.90
2022-08-27T02:54:44.814Z,29.00
2022-08-27T02:55:44.856Z,29.50
2022-08-27T02:56:44.815Z,29.60
2022-08-27T02:57:44.835Z,30.10
2022-08-27T02:58:44.746Z,31.10
2022-08-27T02:59:44.737Z,30.30
2022-08-27T03:00:44.727Z,30.30
2022-08-27T03:01:44.780Z,30.60
2022-08-27T03:02:44.755Z,29.30
2022-08-27T03:03:44.757Z,31.10
2022-08-27T03:04:44.687Z,30.80
2022-08-27T03:05:44.689Z,31.60
2022-08-27T03:06:44.719Z,31.80
2022-08-27T03:07:44.649Z,32.90
2022-08-27T03:08:53.401Z,32.50
2022-08-27T03:09:45.631Z,32.30
2022-08-27T03:10:44.618Z,31.70
2022-08-27T03:11:44.599Z,31.60
2022-08-27T03:12:44.591Z,32.40
2022-08-27T03:13:44.581Z,32.50
2022-08-27T03:14:44.559Z,33.40
2022-08-27T03:15:44.593Z,32.90
2022-08-27T03:16:44.541Z,33.10
2022-08-27T03:17:44.540Z,33.40
2022-08-27T03:18:44.523Z,34.20
2022-08-27T03:19:44.522Z,34.10
2022-08-27T03:20:44.512Z,34.40
2022-08-27T03:21:44.502Z,35.30
2022-08-27T03:22:45.500Z,32.30
2022-08-27T03:23:44.473Z,33.20
2022-08-27T03:24:44.454Z,33.80
2022-08-27T03:25:44.463Z,32.80
2022-08-27T03:26:52.820Z,31.90
2022-08-27T03:27:45.423Z,33.00
2022-08-27T03:28:44.415Z,32.30
2022-08-27T03:29:44.503Z,33.20
2022-08-27T03:30:44.404Z,33.50
2022-08-27T03:31:44.411Z,32.60
2022-08-27T03:32:44.374Z,33.30
2022-08-27T03:33:44.355Z,33.10
2022-08-27T03:34:44.346Z,32.10
2022-08-27T03:35:44.354Z,32.40
2022-08-27T03:36:44.318Z,33.70
2022-08-27T03:37:44.317Z,33.50
2022-08-27T03:38:44.305Z,33.50
2022-08-27T03:39:44.287Z,33.70
2022-08-27T03:40:44.286Z,33.80
2022-08-27T03:41:54.593Z,34.10
2022-08-27T03:42:45.253Z,34.90
2022-08-27T03:43:44.248Z,34.00
2022-08-27T03:44:44.254Z,33.90
2022-08-27T03:46:00.339Z,33.70
2022-08-27T03:46:45.325Z,34.20
2022-08-27T03:47:44.211Z,34.90
2022-08-27T03:48:44.190Z,36.20
2022-08-27T03:49:44.184Z,36.80
2022-08-27T03:50:44.173Z,36.50
2022-08-27T03:51:44.181Z,37.50
2022-08-27T03:52:44.152Z,37.20
2022-08-27T03:53:44.143Z,38.10
2022-08-27T03:54:44.130Z,37.10
2022-08-27T03:55:44.123Z,37.10
2022-08-27T03:56:44.142Z,35.70
2022-08-27T03:57:44.100Z,37.40
2022-08-27T03:58:44.083Z,35.20
2022-08-27T03:59:44.073Z,35.50
2022-08-27T04:00:44.073Z,35.10
2022-08-27T04:01:44.082Z,35.10
2022-08-27T04:02:44.058Z,33.40
2022-08-27T04:03:44.025Z,33.60
2022-08-27T04:04:44.016Z,32.60
2022-08-27T04:05:44.730Z,33.70
2022-08-27T04:06:44.030Z,34.70
2022-08-27T04:07:43.994Z,35.00
2022-08-27T04:08:43.966Z,32.00
2022-08-27T04:09:43.967Z,30.10
2022-08-27T04:10:43.968Z,29.20
2022-08-27T04:11:43.959Z,29.30
2022-08-27T04:12:43.926Z,29.60
2022-08-27T04:13:43.929Z,29.20
2022-08-27T04:14:43.918Z,27.10
2022-08-27T04:15:43.936Z,28.80
2022-08-27T04:16:43.890Z,28.90
2022-08-27T04:17:43.879Z,30.20
2022-08-27T04:18:43.869Z,28.60
2022-08-27T04:19:43.859Z,27.70
2022-08-27T04:20:43.829Z,26.60
2022-08-27T04:21:43.839Z,27.50
2022-08-27T04:22:43.840Z,28.50
2022-08-27T04:23:43.852Z,29.30
2022-08-27T04:24:43.801Z,30.00
2022-08-27T04:25:43.792Z,30.00
2022-08-27T04:26:43.851Z,28.00
2022-08-27T04:27:43.762Z,27.80
2022-08-27T04:28:44.778Z,32.60
2022-08-27T04:29:44.743Z,33.70
2022-08-27T04:30:43.732Z,35.20
2022-08-27T04:31:43.896Z,37.20
2022-08-27T04:32:43.722Z,36.60
2022-08-27T04:33:43.704Z,36.40
2022-08-27T04:34:44.686Z,37.40
2022-08-27T04:35:43.675Z,36.90
2022-08-27T04:36:43.674Z,36.50
2022-08-27T04:37:43.655Z,35.90
2022-08-27T04:38:43.646Z,36.90
2022-08-27T04:39:46.569Z,36.00
2022-08-27T04:40:44.627Z,36.90
2022-08-27T04:41:43.626Z,36.00
2022-08-27T04:42:43.596Z,35.50
2022-08-27T04:43:43.597Z,36.30
2022-08-27T04:44:43.607Z,35.90
2022-08-27T04:45:43.568Z,36.50
2022-08-27T04:46:49.274Z,35.60
2022-08-27T04:47:44.548Z,36.50
2022-08-27T04:48:43.529Z,35.40
2022-08-27T04:49:43.529Z,35.10
2022-08-27T04:50:43.511Z,35.00
2022-08-27T04:51:43.517Z,35.10
2022-08-27T04:52:43.489Z,35.20
2022-08-27T04:53:43.479Z,35.60
2022-08-27T04:54:43.460Z,34.80
2022-08-27T04:55:43.466Z,35.90
2022-08-27T04:56:43.450Z,33.90
2022-08-27T04:57:43.430Z,32.50
2022-08-27T04:58:43.424Z,33.10
2022-08-27T04:59:43.432Z,35.00
2022-08-27T05:00:43.401Z,32.20
2022-08-27T05:01:43.441Z,31.10
2022-08-27T05:02:43.383Z,31.90
2022-08-27T05:03:43.365Z,32.20
2022-08-27T05:04:43.417Z,31.00
2022-08-27T05:05:43.403Z,30.10
2022-08-27T05:06:43.343Z,30.30
2022-08-27T05:07:43.324Z,27.30
2022-08-27T05:08:43.366Z,26.70
2022-08-27T05:09:43.304Z,25.90
2022-08-27T05:10:43.294Z,27.40
2022-08-27T05:11:43.287Z,25.00
2022-08-27T05:12:43.266Z,24.50
2022-08-27T05:13:43.262Z,24.00
2022-08-27T05:14:43.248Z,24.60
2022-08-27T05:15:43.289Z,26.40
2022-08-27T05:16:43.264Z,26.00
2022-08-27T05:17:43.216Z,26.90
2022-08-27T05:18:48.258Z,27.50
2022-08-27T05:19:44.185Z,26.70
2022-08-27T05:20:43.188Z,26.00
2022-08-27T05:21:43.187Z,26.30
2022-08-27T05:22:43.158Z,25.90
2022-08-27T05:23:43.240Z,25.80
2022-08-27T05:24:46.047Z,26.40
2022-08-27T05:25:44.121Z,26.30
2022-08-27T05:26:43.142Z,25.10
2022-08-27T05:27:43.094Z,26.30
2022-08-27T05:28:43.091Z,27.00
2022-08-27T05:29:43.091Z,25.20
2022-08-27T05:30:43.102Z,25.40
2022-08-27T05:31:43.070Z,25.40
2022-08-27T05:32:43.043Z,26.60
2022-08-27T05:33:43.032Z,26.30
2022-08-27T05:34:43.033Z,26.70
2022-08-27T05:35:43.003Z,26.90
2022-08-27T05:36:47.947Z,26.80
2022-08-27T05:37:44.004Z,27.90
2022-08-27T05:38:42.984Z,28.80
2022-08-27T05:39:42.962Z,27.40
2022-08-27T05:40:42.960Z,28.40
2022-08-27T05:41:42.945Z,29.40
2022-08-27T05:42:42.934Z,29.50
2022-08-27T05:43:46.476Z,29.60
2022-08-27T05:44:43.915Z,28.70
2022-08-27T05:45:42.888Z,29.50
2022-08-27T05:46:42.915Z,28.90
2022-08-27T05:47:44.917Z,29.10
2022-08-27T05:48:42.866Z,28.90
2022-08-27T05:49:42.853Z,29.10
2022-08-27T05:50:42.845Z,28.10
2022-08-27T05:51:42.827Z,28.10
2022-08-27T05:52:42.818Z,27.70
2022-08-27T05:53:42.800Z,27.20
2022-08-27T05:54:42.790Z,26.70
2022-08-27T05:55:42.778Z,27.70
2022-08-27T05:56:42.779Z,26.60
2022-08-27T05:57:42.750Z,26.40
2022-08-27T05:58:42.749Z,26.80
2022-08-27T05:59:42.738Z,26.20
2022-08-27T06:00:42.720Z,26.60
2022-08-27T06:01:42.720Z,26.70
2022-08-27T06:02:42.794Z,27.00
2022-08-27T06:03:42.681Z,28.00
2022-08-27T06:04:42.681Z,27.30
2022-08-27T06:05:42.719Z,26.70
2022-08-27T06:06:42.683Z,27.00
2022-08-27T06:07:42.650Z,25.00
2022-08-27T06:08:42.642Z,26.30
2022-08-27T06:09:42.686Z,26.70
2022-08-27T06:10:42.638Z,25.10
2022-08-27T06:11:42.614Z,25.50
2022-08-27T06:12:42.590Z,25.90
2022-08-27T06:13:43.643Z,25.30
2022-08-27T06:14:42.574Z,24.50
2022-08-27T06:15:42.625Z,25.60
2022-08-27T06:16:42.559Z,25.50
2022-08-27T06:17:42.525Z,23.80
2022-08-27T06:18:42.518Z,23.90
2022-08-27T06:19:42.556Z,24.40
2022-08-27T06:20:42.505Z,23.20
2022-08-27T06:21:42.500Z,22.80
2022-08-27T06:22:42.478Z,21.40
2022-08-27T06:23:42.469Z,21.00
2022-08-27T06:24:42.467Z,20.70
2022-08-27T06:25:42.440Z,21.40
2022-08-27T06:26:42.447Z,21.30
2022-08-27T06:27:42.447Z,21.60
2022-08-27T06:28:42.418Z,20.80
2022-08-27T06:29:42.415Z,21.20
2022-08-27T06:30:42.393Z,20.50
2022-08-27T06:31:42.390Z,20.20
2022-08-27T06:32:42.362Z,20.60
2022-08-27T06:33:42.352Z,20.50
2022-08-27T06:34:42.350Z,19.20
2022-08-27T06:35:42.330Z,20.40
2022-08-27T06:36:42.329Z,20.70
2022-08-27T06:37:42.341Z,20.70
2022-08-27T06:38:42.311Z,20.40
2022-08-27T06:39:42.292Z,20.50
2022-08-27T06:40:42.293Z,20.50
2022-08-27T06:41:42.281Z,19.50
2022-08-27T06:42:42.333Z,20.50
2022-08-27T06:43:42.256Z,21.00
2022-08-27T06:44:42.259Z,20.40
2022-08-27T06:45:42.240Z,20.60
2022-08-27T06:46:42.309Z,21.60
2022-08-27T06:47:42.196Z,21.80
2022-08-27T06:48:42.193Z,20.70
2022-08-27T06:49:43.467Z,20.50
2022-08-27T06:50:42.176Z,20.00
2022-08-27T06:51:42.156Z,20.00
2022-08-27T06:52:42.145Z,21.50
2022-08-27T06:53:42.147Z,20.40
2022-08-27T06:54:42.138Z,20.50
2022-08-27T06:55:42.108Z,20.20
2022-08-27T06:56:42.150Z,20.70
2022-08-27T06:57:42.081Z,19.80
2022-08-27T06:58:42.077Z,19.30
2022-08-27T06:59:42.060Z,19.50
2022-08-27T07:00:44.989Z,19.50
2022-08-27T07:01:43.096Z,18.40
2022-08-27T07:02:42.085Z,18.00
2022-08-27T07:03:42.117Z,18.30
2022-08-27T07:04:42.011Z,17.90
2022-08-27T07:05:41.989Z,18.00
2022-08-27T07:06:41.996Z,18.70
2022-08-27T07:07:46.692Z,17.70
2022-08-27T07:08:42.963Z,17.80
2022-08-27T07:09:41.941Z,17.60
2022-08-27T07:10:42.055Z,17.60
2022-08-27T07:11:41.941Z,17.00
2022-08-27T07:12:41.921Z,16.30
2022-08-27T07:13:41.903Z,17.70
2022-08-27T07:14:41.902Z,17.60
2022-08-27T07:15:41.928Z,17.60
2022-08-27T07:16:41.882Z,17.20
2022-08-27T07:17:41.965Z,17.90
2022-08-27T07:18:41.834Z,16.30
2022-08-27T07:19:41.872Z,17.20
2022-08-27T07:20:41.836Z,17.10
2022-08-27T07:21:41.833Z,17.00
2022-08-27T07:22:41.804Z,18.00
2022-08-27T07:23:41.794Z,17.90
2022-08-27T07:24:41.787Z,18.90
2022-08-27T07:25:41.776Z,17.90
2022-08-27T07:26:41.776Z,17.30
2022-08-27T07:27:41.745Z,17.30
2022-08-27T07:28:41.755Z,17.00
2022-08-27T07:29:41.726Z,17.40
2022-08-27T07:30:41.744Z,15.60
2022-08-27T07:31:41.717Z,15.70
2022-08-27T07:32:41.687Z,15.80
2022-08-27T07:33:45.369Z,16.80
2022-08-27T07:34:42.687Z,15.70
2022-08-27T07:35:41.659Z,15.10
2022-08-27T07:36:41.648Z,16.80
2022-08-27T07:37:41.648Z,16.70
2022-08-27T07:38:41.627Z,17.90
2022-08-27T07:39:41.678Z,17.40
2022-08-27T07:40:41.610Z,17.10
2022-08-27T07:41:41.620Z,18.30
2022-08-27T07:42:41.589Z,18.00
2022-08-27T07:43:41.586Z,18.90
2022-08-27T07:44:41.562Z,18.20
2022-08-27T07:45:41.590Z,18.30
2022-08-27T07:46:45.705Z,18.50
2022-08-27T07:47:42.573Z,18.20
2022-08-27T07:48:41.512Z,19.10
2022-08-27T07:49:41.515Z,19.00
2022-08-27T07:50:41.503Z,18.40
2022-08-27T07:51:41.509Z,19.00
2022-08-27T07:52:41.534Z,17.90
2022-08-27T07:53:41.495Z,17.50
2022-08-27T07:54:41.455Z,16.70
2022-08-27T07:55:41.442Z,15.70
2022-08-27T07:56:41.447Z,15.10
2022-08-27T07:57:41.434Z,14.80
2022-08-27T07:58:41.432Z,14.60
2022-08-27T07:59:41.397Z,14.00
2022-08-27T08:00:41.383Z,14.10
2022-08-27T08:01:41.434Z,13.40
2022-08-27T08:02:41.414Z,13.50
2022-08-27T08:03:41.347Z,13.20
2022-08-27T08:04:41.340Z,13.50
2022-08-27T08:05:41.327Z,12.90
2022-08-27T08:06:41.328Z,12.40
2022-08-27T08:07:41.300Z,13.30
2022-08-27T08:08:41.300Z,13.00
2022-08-27T08:09:41.279Z,13.50
2022-08-27T08:10:41.278Z,12.80
2022-08-27T08:11:41.272Z,13.50
2022-08-27T08:12:41.250Z,13.00
2022-08-27T08:13:41.240Z,12.80
2022-08-27T08:14:41.241Z,11.90
2022-08-27T08:15:41.231Z,12.40
2022-08-27T08:16:41.477Z,11.60
2022-08-27T08:17:41.193Z,12.00
2022-08-27T08:18:41.192Z,12.10
2022-08-27T08:19:41.209Z,12.70
2022-08-27T08:20:57.458Z,12.60
2022-08-27T08:21:42.153Z,13.80
2022-08-27T08:22:41.254Z,13.90
2022-08-27T08:23:41.134Z,13.50
2022-08-27T08:24:41.113Z,13.10
2022-08-27T08:25:41.115Z,13.60
2022-08-27T08:26:41.144Z,13.70
2022-08-27T08:27:41.083Z,13.00
2022-08-27T08:28:41.096Z,13.20
2022-08-27T08:29:41.085Z,14.60
2022-08-27T08:30:41.113Z,13.60
2022-08-27T08:31:41.067Z,13.80
2022-08-27T08:32:41.059Z,13.70
2022-08-27T08:33:41.024Z,13.60
2022-08-27T08:34:41.016Z,13.60
2022-08-27T08:35:41.321Z,13.10
2022-08-27T08:36:40.997Z,13.40
2022-08-27T08:37:41.012Z,12.30
2022-08-27T08:38:40.997Z,12.70
2022-08-27T08:39:40.950Z,11.90
2022-08-27T08:40:40.947Z,12.40
2022-08-27T08:41:40.958Z,11.90
2022-08-27T08:42:40.928Z,12.40
2022-08-27T08:43:40.911Z,13.40
2022-08-27T08:44:40.920Z,13.20
2022-08-27T08:45:40.906Z,13.00
2022-08-27T08:46:40.922Z,12.60
2022-08-27T08:47:40.917Z,12.40
2022-08-27T08:48:40.852Z,12.10
2022-08-27T08:49:40.855Z,11.60
2022-08-27T08:50:40.833Z,12.90
2022-08-27T08:51:40.834Z,12.10
2022-08-27T08:52:40.814Z,11.60
2022-08-27T08:53:40.805Z,11.00
2022-08-27T08:54:40.794Z,11.40
2022-08-27T08:55:40.775Z,11.40
2022-08-27T08:56:40.775Z,11.00
2022-08-27T08:57:40.753Z,11.70
2022-08-27T08:58:40.745Z,10.80
2022-08-27T08:59:40.734Z,11.40
2022-08-27T09:00:40.731Z,11.50
2022-08-27T09:01:40.837Z,11.00
2022-08-27T09:02:40.708Z,11.20
2022-08-27T09:03:40.735Z,10.10
2022-08-27T09:04:40.701Z,10.80
2022-08-27T09:05:40.685Z,9.40
2022-08-27T09:06:40.669Z,10.00
2022-08-27T09:07:40.645Z,10.20
2022-08-27T09:08:41.957Z,10.30
2022-08-27T09:09:40.618Z,10.20
2022-08-27T09:10:40.618Z,10.20
2022-08-27T09:11:40.620Z,10.60
2022-08-27T09:12:40.589Z,10.00
2022-08-27T09:13:40.579Z,10.80
2022-08-27T09:14:40.575Z,9.80
2022-08-27T09:15:40.567Z,10.10
2022-08-27T09:16:40.638Z,10.80
2022-08-27T09:17:40.551Z,9.80
2022-08-27T09:18:40.919Z,9.90
2022-08-27T09:19:40.510Z,9.80
2022-08-27T09:20:40.503Z,9.80
2022-08-27T09:21:40.502Z,9.30
2022-08-27T09:22:40.482Z,9.10
2022-08-27T09:23:40.502Z,9.30
2022-08-27T09:24:40.453Z,8.50
2022-08-27T09:25:40.444Z,8.70
2022-08-27T09:26:40.435Z,9.60
2022-08-27T09:27:40.432Z,9.20
2022-08-27T09:28:40.415Z,9.30
2022-08-27T09:29:40.395Z,9.20
2022-08-27T09:30:40.414Z,9.10
2022-08-27T09:31:40.383Z,9.20
2022-08-27T09:32:40.384Z,9.60
2022-08-27T09:33:44.628Z,10.50
2022-08-27T09:34:41.348Z,9.50
2022-08-27T09:35:40.346Z,9.50
2022-08-27T09:36:40.326Z,9.30
2022-08-27T09:37:40.329Z,9.00
2022-08-27T09:38:40.417Z,8.70
2022-08-27T09:39:40.288Z,9.10
2022-08-27T09:40:40.367Z,8.60
2022-08-27T09:41:40.317Z,9.40
2022-08-27T09:42:40.269Z,10.70
2022-08-27T09:43:40.297Z,14.40
2022-08-27T09:44:40.240Z,16.60
2022-08-27T09:45:40.270Z,16.60
2022-08-27T09:46:40.240Z,16.70
2022-08-27T09:47:40.210Z,16.10
2022-08-27T09:48:40.191Z,17.50
2022-08-27T09:49:40.181Z,17.30
2022-08-27T09:50:43.504Z,17.70
2022-08-27T09:51:40.151Z,18.50
2022-08-27T09:52:40.223Z,18.50
2022-08-27T09:53:40.147Z,18.50
2022-08-27T09:54:40.122Z,18.50
2022-08-27T09:55:40.554Z,19.00
2022-08-27T09:56:40.103Z,18.40
2022-08-27T09:57:40.222Z,18.30
2022-08-27T09:58:40.135Z,19.50
2022-08-27T09:59:40.065Z,19.90
2022-08-27T10:00:40.063Z,19.50
2022-08-27T10:01:40.114Z,20.40
2022-08-27T10:02:40.055Z,20.20
2022-08-27T10:03:40.050Z,21.70
2022-08-27T10:04:50.410Z,20.90
2022-08-27T10:05:41.005Z,20.50
2022-08-27T10:06:39.998Z,21.50
2022-08-27T10:07:40.006Z,21.00
2022-08-27T10:08:39.983Z,21.00
2022-08-27T10:09:39.960Z,22.30
2022-08-27T10:10:40.725Z,21.40
2022-08-27T10:11:39.938Z,21.50
2022-08-27T10:12:39.966Z,21.70
2022-08-27T10:13:39.933Z,20.70
2022-08-27T10:14:39.915Z,21.00
2022-08-27T10:15:43.268Z,21.20
2022-08-27T10:16:39.935Z,22.00
2022-08-27T10:17:39.882Z,21.50
2022-08-27T10:18:39.851Z,20.70
2022-08-27T10:19:39.844Z,20.40
2022-08-27T10:20:39.842Z,19.60
2022-08-27T10:21:39.821Z,20.60
2022-08-27T10:22:39.831Z,21.30
2022-08-27T10:23:39.804Z,19.80
2022-08-27T10:24:39.792Z,19.50
2022-08-27T10:25:39.773Z,20.40
2022-08-27T10:26:39.770Z,20.10
2022-08-27T10:27:39.763Z,19.60
2022-08-27T10:28:39.755Z,20.40
2022-08-27T10:29:39.735Z,20.00
2022-08-27T10:30:39.726Z,20.70
2022-08-27T10:31:39.765Z,20.60
2022-08-27T10:32:39.715Z,19.50
2022-08-27T10:33:39.685Z,20.30
2022-08-27T10:34:39.706Z,20.00
2022-08-27T10:35:46.792Z,20.40
2022-08-27T10:36:40.657Z,20.30
2022-08-27T10:37:40.590Z,20.60
2022-08-27T10:38:44.438Z,19.60
2022-08-27T10:39:40.627Z,20.70
2022-08-27T10:40:39.691Z,19.70
2022-08-27T10:41:39.600Z,19.50
2022-08-27T10:42:39.615Z,19.50
2022-08-27T10:43:39.579Z,20.00
2022-08-27T10:44:39.580Z,19.30
2022-08-27T10:45:39.588Z,18.70
2022-08-27T10:46:39.549Z,18.90
2022-08-27T10:47:40.550Z,18.40
2022-08-27T10:48:39.527Z,18.40
2022-08-27T10:49:39.510Z,18.40
2022-08-27T10:50:39.521Z,17.80
2022-08-27T10:51:39.494Z,17.70
2022-08-27T10:52:39.494Z,19.60
2022-08-27T10:53:39.463Z,18.50
2022-08-27T10:54:39.462Z,18.60
2022-08-27T10:55:39.463Z,18.40
2022-08-27T10:56:39.442Z,18.00
2022-08-27T10:57:55.157Z,18.00
2022-08-27T10:58:40.423Z,18.10
2022-08-27T10:59:39.394Z,16.80
2022-08-27T11:00:39.402Z,17.30
2022-08-27T11:01:39.394Z,16.40
2022-08-27T11:02:39.437Z,16.50
2022-08-27T11:03:39.652Z,16.20
2022-08-27T11:04:39.389Z,16.30
2022-08-27T11:05:39.344Z,16.50
2022-08-27T11:06:39.333Z,16.10
2022-08-27T11:07:39.328Z,15.90
2022-08-27T11:08:39.315Z,15.50
2022-08-27T11:09:39.329Z,15.10
2022-08-27T11:10:39.298Z,14.50
2022-08-27T11:12:12.685Z,16.80
2022-08-27T11:12:40.269Z,16.30
2022-08-27T11:13:39.278Z,16.00
2022-08-27T11:14:39.249Z,16.80
2022-08-27T11:15:39.238Z,17.00
2022-08-27T11:16:43.388Z,16.60
2022-08-27T11:17:40.220Z,15.40
2022-08-27T11:18:39.201Z,14.70
2022-08-27T11:19:39.192Z,15.10
2022-08-27T11:20:39.172Z,15.50
2022-08-27T11:21:39.169Z,14.70
2022-08-27T11:22:39.183Z,14.20
2022-08-27T11:23:39.152Z,14.00
2022-08-27T11:24:39.135Z,12.60
2022-08-27T11:25:39.133Z,12.40
2022-08-27T11:26:39.124Z,11.50
2022-08-27T11:27:39.119Z,12.40
2022-08-27T11:28:39.118Z,11.00
2022-08-27T11:29:39.091Z,11.00
2022-08-27T11:30:39.077Z,11.20
2022-08-27T11:31:39.091Z,10.50
2022-08-27T11:32:39.067Z,10.30
2022-08-27T11:33:42.723Z,11.20
2022-08-27T11:34:40.030Z,10.30
2022-08-27T11:35:39.008Z,10.30
2022-08-27T11:36:39.022Z,10.00
2022-08-27T11:37:39.028Z,10.20
2022-08-27T11:38:38.988Z,10.00
2022-08-27T11:39:38.968Z,9.90
2022-08-27T11:40:39.037Z,9.40
2022-08-27T11:41:44.706Z,10.10
2022-08-27T11:42:39.951Z,9.10
2022-08-27T11:43:38.931Z,9.30
2022-08-27T11:44:38.929Z,9.90
2022-08-27T11:45:38.908Z,9.70
2022-08-27T11:46:39.024Z,9.20
2022-08-27T11:47:39.073Z,9.60
2022-08-27T11:48:38.885Z,10.50
2022-08-27T11:49:38.863Z,10.10
2022-08-27T11:50:38.853Z,10.00
2022-08-27T11:51:38.832Z,9.60
2022-08-27T11:52:38.856Z,9.90
2022-08-27T11:53:51.851Z,9.90
2022-08-27T11:54:39.823Z,11.20
2022-08-27T11:55:38.804Z,11.50
2022-08-27T11:56:38.796Z,10.90
2022-08-27T11:57:38.778Z,10.10
2022-08-27T11:58:52.826Z,10.10
2022-08-27T11:59:39.770Z,10.90
2022-08-27T12:00:38.748Z,10.70
2022-08-27T12:01:38.742Z,10.50
2022-08-27T12:02:38.743Z,10.20
2022-08-27T12:03:38.789Z,12.00
2022-08-27T12:04:38.783Z,10.90
2022-08-27T12:05:38.688Z,10.10
2022-08-27T12:06:38.668Z,9.20
2022-08-27T12:07:38.669Z,10.10
2022-08-27T12:08:38.652Z,9.30
2022-08-27T12:09:38.630Z,9.10
2022-08-27T12:10:38.629Z,9.30
2022-08-27T12:11:38.614Z,8.20
2022-08-27T12:12:38.611Z,8.20
2022-08-27T12:13:38.597Z,7.70
2022-08-27T12:14:38.582Z,8.80
2022-08-27T12:15:38.561Z,9.20
2022-08-27T12:16:38.593Z,8.90
2022-08-27T12:17:38.564Z,9.10
2022-08-27T12:18:38.532Z,9.40
2022-08-27T12:19:38.528Z,9.00
2022-08-27T12:20:38.515Z,8.90
2022-08-27T12:21:38.503Z,8.50
2022-08-27T12:22:39.646Z,8.90
2022-08-27T12:23:38.484Z,8.40
2022-08-27T12:24:38.466Z,8.10
2022-08-27T12:25:38.478Z,7.90
2022-08-27T12:26:38.445Z,8.60
2022-08-27T12:27:38.437Z,8.10
2022-08-27T12:28:38.455Z,7.40
2022-08-27T12:29:39.369Z,6.90
2022-08-27T12:30:39.405Z,7.40
2022-08-27T12:31:38.423Z,7.10
2022-08-27T12:32:38.388Z,7.00
2022-08-27T12:33:38.371Z,6.80
2022-08-27T12:34:38.357Z,7.00
2022-08-27T12:35:38.343Z,7.60
2022-08-27T12:36:38.330Z,6.60
2022-08-27T12:37:38.440Z,7.30
2022-08-27T12:38:38.308Z,7.80
2022-08-27T12:39:38.291Z,7.50
2022-08-27T12:40:38.382Z,7.40
2022-08-27T12:41:44.300Z,7.20
2022-08-27T12:42:39.270Z,7.70
2022-08-27T12:43:38.243Z,7.50
2022-08-27T12:44:38.242Z,7.30
2022-08-27T12:45:38.223Z,7.90
2022-08-27T12:46:38.281Z,7.60
2022-08-27T12:47:38.211Z,7.60
2022-08-27T12:48:38.193Z,7.80
2022-08-27T12:49:39.652Z,8.30
2022-08-27T12:50:38.175Z,8.10
2022-08-27T12:51:38.154Z,8.10
2022-08-27T12:52:38.157Z,8.50
2022-08-27T12:53:38.157Z,7.70
2022-08-27T12:54:38.183Z,8.20
2022-08-27T12:55:38.116Z,8.50
2022-08-27T12:56:38.110Z,8.00
2022-08-27T12:57:38.097Z,8.00
2022-08-27T12:58:38.088Z,7.70